createdAt,value
2023-05-10T00:00:44.163Z,100438.53
2023-05-10T00:03:10.800Z,100431.06
2023-05-10T00:05:37.334Z,100433.84
2023-05-10T00:08:03.998Z,100438.63
2023-05-10T00:10:30.458Z,100432.25
2023-05-10T00:12:56.984Z,100432.19
2023-05-10T00:15:23.504Z,100434.16
2023-05-10T00:17:50.044Z,100427.47
2023-05-10T00:20:16.751Z,100429.81
2023-05-10T00:22:43.490Z,100429.47
2023-05-10T00:25:11.149Z,100439.84
2023-05-10T00:27:37.697Z,100438.25
2023-05-10T00:30:04.615Z,100430.25
2023-05-10T00:32:31.540Z,100434.00
2023-05-10T00:34:58.186Z,100435.66
2023-05-10T00:37:24.655Z,100437.13
2023-05-10T00:39:51.229Z,100431.13
2023-05-10T00:42:17.724Z,100429.22
2023-05-10T00:44:44.228Z,100434.78
2023-05-10T00:47:11.217Z,100431.91
2023-05-10T00:49:37.786Z,100436.81
2023-05-10T00:52:04.683Z,100428.25
2023-05-10T00:54:31.547Z,100427.28
2023-05-10T00:56:58.339Z,100434.88
2023-05-10T00:59:24.903Z,100430.06
2023-05-10T01:01:52.599Z,100428.50
2023-05-10T01:04:21.214Z,100429.63
2023-05-10T01:06:47.717Z,100421.03
2023-05-10T01:12:55.869Z,100435.03
2023-05-10T01:15:22.932Z,100434.78
2023-05-10T01:17:50.014Z,100435.56
2023-05-10T01:20:17.026Z,100435.22
2023-05-10T01:22:43.866Z,100443.50
2023-05-10T01:25:42.034Z,100447.59
2023-05-10T01:28:36.066Z,100446.91
2023-05-10T01:31:05.895Z,100445.13
2023-05-10T01:33:55.828Z,100448.00
2023-05-10T01:36:27.917Z,100458.91
2023-05-10T01:39:03.502Z,100458.91
2023-05-10T01:42:07.582Z,100459.69
2023-05-10T01:44:41.201Z,100454.56
2023-05-10T01:47:33.567Z,100460.13
2023-05-10T01:50:03.586Z,100464.13
2023-05-10T01:52:37.678Z,100466.13
2023-05-10T01:55:08.759Z,100464.13
2023-05-10T01:57:38.235Z,100464.38
2023-05-10T02:00:08.646Z,100467.06
2023-05-10T02:02:38.737Z,100463.59
2023-05-10T02:05:07.737Z,100463.16
2023-05-10T02:07:36.483Z,100464.81
2023-05-10T02:10:05.327Z,100471.19
2023-05-10T02:12:36.278Z,100467.66
2023-05-10T02:15:05.347Z,100474.41
2023-05-10T02:17:33.693Z,100474.56
2023-05-10T02:20:02.052Z,100477.34
2023-05-10T02:22:29.520Z,100485.81
2023-05-10T02:25:00.488Z,100490.19
2023-05-10T02:27:28.916Z,100488.28
2023-05-10T02:29:56.131Z,100487.03
2023-05-10T02:32:25.566Z,100488.00
2023-05-10T02:34:53.528Z,100477.72
2023-05-10T02:37:21.971Z,100489.44
2023-05-10T02:39:50.790Z,100492.22
2023-05-10T02:42:20.513Z,100485.16
2023-05-10T02:44:49.869Z,100489.06
2023-05-10T02:47:16.481Z,100484.28
2023-05-10T02:49:43.316Z,100485.84
2023-05-10T02:52:10.451Z,100489.50
2023-05-10T02:54:46.955Z,100492.78
2023-05-10T02:57:19.087Z,100491.84
2023-05-10T02:59:48.692Z,100496.72
2023-05-10T03:02:15.538Z,100491.28
2023-05-10T03:04:42.084Z,100497.16
2023-05-10T03:07:08.890Z,100488.78
2023-05-10T03:09:35.997Z,100485.59
2023-05-10T03:12:06.530Z,100491.84
2023-05-10T03:14:44.383Z,100493.06
2023-05-10T03:17:32.052Z,100501.72
2023-05-10T03:20:04.364Z,100501.91
2023-05-10T03:22:39.195Z,100502.06
2023-05-10T03:25:07.774Z,100509.56
2023-05-10T03:27:36.358Z,100503.84
2023-05-10T03:30:03.604Z,100505.63
2023-05-10T03:32:31.228Z,100499.28
2023-05-10T03:34:57.709Z,100504.13
2023-05-10T03:37:24.254Z,100510.94
2023-05-10T03:39:50.759Z,100514.41
2023-05-10T03:42:20.477Z,100514.28
2023-05-10T03:44:46.970Z,100517.06
2023-05-10T03:47:13.388Z,100519.34
2023-05-10T03:49:39.857Z,100512.19
2023-05-10T03:52:06.421Z,100516.88
2023-05-10T03:54:33.274Z,100514.50
2023-05-10T03:56:59.740Z,100519.94
2023-05-10T03:59:26.230Z,100529.56
2023-05-10T04:01:52.918Z,100531.22
2023-05-10T04:04:21.717Z,100523.28
2023-05-10T04:06:48.513Z,100526.84
2023-05-10T04:09:15.028Z,100536.34
2023-05-10T04:11:41.490Z,100532.78
2023-05-10T04:14:07.946Z,100529.63
2023-05-10T04:16:34.509Z,100530.78
2023-05-10T04:19:01.086Z,100536.34
2023-05-10T04:21:27.661Z,100530.41
2023-05-10T04:23:54.107Z,100534.75
2023-05-10T04:26:21.158Z,100537.19
2023-05-10T04:28:47.648Z,100532.41
2023-05-10T04:31:14.249Z,100534.91
2023-05-10T04:33:40.940Z,100542.97
2023-05-10T04:36:07.656Z,100540.41
2023-05-10T04:38:34.208Z,100528.91
2023-05-10T04:41:10.640Z,100530.13
2023-05-10T04:43:37.951Z,100544.03
2023-05-10T04:46:05.702Z,100545.84
2023-05-10T04:48:32.197Z,100545.19
2023-05-10T04:50:58.710Z,100549.91
2023-05-10T04:53:25.157Z,100548.25
2023-05-10T04:55:51.634Z,100552.09
2023-05-10T04:58:18.127Z,100550.81
2023-05-10T05:00:45.206Z,100562.34
2023-05-10T05:03:11.839Z,100553.25
2023-05-10T05:05:38.408Z,100555.97
2023-05-10T05:08:04.961Z,100563.19
2023-05-10T05:10:31.661Z,100559.19
2023-05-10T05:12:58.099Z,100561.59
2023-05-10T05:15:24.649Z,100563.09
2023-05-10T05:17:51.204Z,100560.13
2023-05-10T05:20:18.267Z,100565.47
2023-05-10T05:22:44.909Z,100574.09
2023-05-10T05:25:12.644Z,100573.75
2023-05-10T05:27:39.151Z,100569.75
2023-05-10T05:30:06.364Z,100571.03
2023-05-10T05:32:32.921Z,100572.81
2023-05-10T05:34:59.526Z,100570.59
2023-05-10T05:37:26.247Z,100582.44
2023-05-10T05:39:52.748Z,100578.81
2023-05-10T05:42:19.870Z,100587.88
2023-05-10T05:44:46.668Z,100588.31
2023-05-10T05:47:13.560Z,100591.41
2023-05-10T05:49:40.587Z,100582.25
2023-05-10T05:52:07.283Z,100587.09
2023-05-10T05:54:33.814Z,100589.81
2023-05-10T05:57:01.716Z,100587.28
2023-05-10T05:59:28.545Z,100596.88
2023-05-10T06:01:55.492Z,100596.41
2023-05-10T06:04:22.201Z,100606.59
2023-05-10T06:06:48.729Z,100607.09
2023-05-10T06:09:15.430Z,100605.66
2023-05-10T06:11:41.979Z,100606.59
2023-05-10T06:14:08.932Z,100607.00
2023-05-10T06:16:35.854Z,100617.94
2023-05-10T06:19:03.262Z,100609.75
2023-05-10T06:21:30.144Z,100613.41
2023-05-10T06:23:56.647Z,100624.50
2023-05-10T06:26:23.214Z,100607.84
2023-05-10T06:28:49.684Z,100627.19
2023-05-10T06:31:17.013Z,100627.09
2023-05-10T06:33:43.547Z,100635.28
2023-05-10T06:36:10.814Z,100631.31
2023-05-10T06:38:37.530Z,100635.03
2023-05-10T06:41:04.106Z,100630.22
2023-05-10T06:43:30.750Z,100633.38
2023-05-10T06:45:57.307Z,100638.28
2023-05-10T06:48:24.068Z,100645.94
2023-05-10T06:50:50.547Z,100627.31
2023-05-10T06:53:17.184Z,100634.38
2023-05-10T06:55:43.665Z,100633.09
2023-05-10T06:58:10.181Z,100634.84
2023-05-10T07:00:40.181Z,100635.03
2023-05-10T07:03:07.175Z,100644.63
2023-05-10T07:05:33.795Z,100643.16
2023-05-10T07:08:00.831Z,100636.34
2023-05-10T07:10:27.595Z,100637.38
2023-05-10T07:12:54.284Z,100631.19
2023-05-10T07:15:20.971Z,100626.72
2023-05-10T07:17:47.606Z,100644.78
2023-05-10T07:20:14.230Z,100641.13
2023-05-10T07:22:40.830Z,100644.06
2023-05-10T07:25:07.674Z,100638.47
2023-05-10T07:27:34.148Z,100637.50
2023-05-10T07:30:01.449Z,100638.34
2023-05-10T07:32:28.097Z,100631.50
2023-05-10T07:34:54.665Z,100636.56
2023-05-10T07:37:21.265Z,100628.31
2023-05-10T07:39:47.728Z,100636.94
2023-05-10T07:42:14.192Z,100629.88
2023-05-10T07:44:40.655Z,100639.59
2023-05-10T07:47:08.242Z,100643.75
2023-05-10T07:49:34.720Z,100637.81
2023-05-10T07:52:01.167Z,100643.34
2023-05-10T07:54:27.602Z,100642.03
2023-05-10T07:56:54.033Z,100642.56
2023-05-10T07:59:20.999Z,100643.59
2023-05-10T08:01:47.517Z,100641.44
2023-05-10T08:04:14.102Z,100649.19
2023-05-10T08:06:41.248Z,100646.19
2023-05-10T08:09:08.367Z,100650.75
2023-05-10T08:11:35.276Z,100658.19
2023-05-10T08:14:02.365Z,100655.81
2023-05-10T08:16:29.851Z,100655.38
2023-05-10T08:18:56.677Z,100654.41
2023-05-10T08:21:23.190Z,100656.03
2023-05-10T08:23:50.103Z,100660.06
2023-05-10T08:26:16.735Z,100660.56
2023-05-10T08:28:43.309Z,100667.94
2023-05-10T08:31:09.847Z,100669.38
2023-05-10T08:33:36.429Z,100675.63
2023-05-10T08:36:02.985Z,100679.66
2023-05-10T08:38:29.469Z,100682.66
2023-05-10T08:40:58.036Z,100688.28
2023-05-10T08:43:29.011Z,100685.63
2023-05-10T08:45:57.429Z,100692.47
2023-05-10T08:48:25.958Z,100686.16
2023-05-10T08:50:57.536Z,100699.19
2023-05-10T08:53:27.659Z,100696.84
2023-05-10T08:55:54.349Z,100702.03
2023-05-10T08:58:21.294Z,100691.81
2023-05-10T09:00:53.666Z,100703.75
2023-05-10T09:03:20.403Z,100704.59
2023-05-10T09:05:47.430Z,100697.41
2023-05-10T09:08:17.179Z,100703.63
2023-05-10T09:10:44.437Z,100707.81
2023-05-10T09:13:12.815Z,100705.78
2023-05-10T09:15:39.589Z,100712.78
2023-05-10T09:18:06.357Z,100703.13
2023-05-10T09:20:32.924Z,100703.25
2023-05-10T09:22:59.380Z,100712.84
2023-05-10T09:25:25.981Z,100712.56
2023-05-10T09:27:53.378Z,100719.94
2023-05-10T09:30:27.769Z,100704.63
2023-05-10T09:32:55.272Z,100710.88
2023-05-10T09:35:27.194Z,100701.91
2023-05-10T09:37:58.218Z,100700.69
2023-05-10T09:40:26.777Z,100703.16
2023-05-10T09:42:56.157Z,100695.53
2023-05-10T09:45:27.055Z,100710.19
2023-05-10T09:47:54.242Z,100704.00
2023-05-10T09:50:21.831Z,100708.97
2023-05-10T09:52:54.526Z,100700.44
2023-05-10T09:55:26.281Z,100713.34
2023-05-10T09:58:02.938Z,100715.72
2023-05-10T10:00:35.253Z,100724.22
2023-05-10T10:03:02.351Z,100720.31
2023-05-10T10:05:30.044Z,100724.09
2023-05-10T10:07:58.783Z,100727.09
2023-05-10T10:10:26.482Z,100728.63
2023-05-10T10:12:53.532Z,100722.84
2023-05-10T10:15:21.933Z,100719.16
2023-05-10T10:17:50.197Z,100724.41
2023-05-10T10:20:17.679Z,100729.56
2023-05-10T10:22:44.896Z,100727.16
2023-05-10T10:25:13.104Z,100732.91
2023-05-10T10:28:01.722Z,100732.75
2023-05-10T10:30:35.852Z,100729.28
2023-05-10T10:33:28.873Z,100741.75
2023-05-10T10:35:58.973Z,100738.13
2023-05-10T10:38:25.628Z,100738.13
2023-05-10T10:41:11.809Z,100734.94
2023-05-10T10:43:38.368Z,100736.59
2023-05-10T10:46:18.722Z,100738.63
2023-05-10T10:48:50.736Z,100743.72
2023-05-10T10:51:17.560Z,100737.16
2023-05-10T10:53:44.727Z,100744.31
2023-05-10T10:56:15.975Z,100752.63
2023-05-10T10:58:42.620Z,100748.06
2023-05-10T11:01:19.823Z,100751.53
2023-05-10T11:04:09.397Z,100750.16
2023-05-10T11:06:37.064Z,100751.00
2023-05-10T11:09:08.528Z,100759.41
2023-05-10T11:11:36.554Z,100764.75
2023-05-10T11:14:08.238Z,100767.59
2023-05-10T11:16:45.751Z,100773.50
2023-05-10T11:19:16.600Z,100768.53
2023-05-10T11:21:50.078Z,100770.22
2023-05-10T11:24:27.885Z,100768.78
2023-05-10T11:26:54.922Z,100776.53
2023-05-10T11:29:21.530Z,100773.81
2023-05-10T11:31:49.516Z,100783.94
2023-05-10T11:34:34.793Z,100782.22
2023-05-10T11:37:01.933Z,100789.84
2023-05-10T11:39:29.859Z,100782.56
2023-05-10T11:41:57.096Z,100782.56
2023-05-10T11:44:24.196Z,100794.44
2023-05-10T11:46:50.872Z,100787.28
2023-05-10T11:49:17.403Z,100782.84
2023-05-10T11:51:44.802Z,100787.81
2023-05-10T11:54:12.388Z,100789.97
2023-05-10T11:56:42.062Z,100794.31
2023-05-10T11:59:09.186Z,100792.50
2023-05-10T12:01:36.632Z,100793.88
2023-05-10T12:04:03.771Z,100787.28
2023-05-10T12:06:33.273Z,100791.53
2023-05-10T12:09:00.263Z,100793.59
2023-05-10T12:11:28.842Z,100794.59
2023-05-10T12:13:57.246Z,100793.44
2023-05-10T12:16:25.749Z,100801.41
2023-05-10T12:18:53.867Z,100793.06
2023-05-10T12:21:21.645Z,100801.38
2023-05-10T12:23:51.503Z,100807.19
2023-05-10T12:26:18.532Z,100807.09
2023-05-10T12:28:45.373Z,100804.88
2023-05-10T12:31:11.878Z,100813.50
2023-05-10T12:33:46.432Z,100808.03
2023-05-10T12:36:17.101Z,100800.19
2023-05-10T12:38:45.325Z,100801.66
2023-05-10T12:41:14.343Z,100801.88
2023-05-10T12:43:41.598Z,100801.66
2023-05-10T12:46:16.117Z,100798.63
2023-05-10T12:48:44.802Z,100804.00
2023-05-10T12:51:18.074Z,100808.38
2023-05-10T12:53:48.743Z,100798.16
2023-05-10T12:56:16.251Z,100804.81
2023-05-10T12:58:42.773Z,100805.53
2023-05-10T13:01:09.486Z,100800.63
2023-05-10T13:03:36.019Z,100820.25
2023-05-10T13:06:03.331Z,100812.84
2023-05-10T13:08:34.205Z,100810.47
2023-05-10T13:11:01.856Z,100809.97
2023-05-10T13:13:28.399Z,100822.16
2023-05-10T13:15:55.457Z,100804.06
2023-05-10T13:18:22.011Z,100801.84
2023-05-10T13:20:50.528Z,100806.78
2023-05-10T13:23:17.090Z,100817.25
2023-05-10T13:25:43.546Z,100807.50
2023-05-10T13:28:10.024Z,100811.63
2023-05-10T13:30:36.576Z,100798.72
2023-05-10T13:33:03.061Z,100807.38
2023-05-10T13:35:29.630Z,100802.38
2023-05-10T13:37:58.591Z,100803.69
2023-05-10T13:40:25.106Z,100799.69
2023-05-10T13:42:51.568Z,100804.03
2023-05-10T13:45:18.170Z,100803.84
2023-05-10T13:47:44.955Z,100812.28
2023-05-10T13:50:11.464Z,100816.41
2023-05-10T13:52:38.307Z,100808.50
2023-05-10T13:55:05.170Z,100805.38
2023-05-10T13:57:31.684Z,100810.75
2023-05-10T13:59:58.558Z,100803.88
2023-05-10T14:02:25.536Z,100809.66
2023-05-10T14:04:54.459Z,100798.22
2023-05-10T14:07:21.394Z,100794.59
2023-05-10T14:09:48.036Z,100790.53
2023-05-10T14:12:15.555Z,100792.03
2023-05-10T14:14:42.064Z,100785.06
2023-05-10T14:19:38.546Z,100793.28
2023-05-10T14:22:05.034Z,100790.09
2023-05-10T14:24:31.551Z,100781.13
2023-05-10T14:26:58.088Z,100773.94
2023-05-10T14:29:24.690Z,100775.66
2023-05-10T14:31:51.380Z,100772.81
2023-05-10T14:34:17.897Z,100778.78
2023-05-10T14:36:44.365Z,100779.78
2023-05-10T14:39:13.636Z,100780.78
2023-05-10T14:41:42.456Z,100776.50
2023-05-10T14:44:08.966Z,100775.66
2023-05-10T14:46:36.108Z,100776.94
2023-05-10T14:49:02.728Z,100778.47
2023-05-10T14:51:29.182Z,100777.53
2023-05-10T14:53:55.623Z,100781.50
2023-05-10T14:56:22.989Z,100772.53
2023-05-10T14:58:50.905Z,100779.19
2023-05-10T15:01:17.424Z,100781.50
2023-05-10T15:03:44.351Z,100776.75
2023-05-10T15:06:11.731Z,100790.47
2023-05-10T15:08:38.202Z,100786.25
2023-05-10T15:11:04.854Z,100780.75
2023-05-10T15:13:31.443Z,100781.53
2023-05-10T15:15:57.972Z,100782.34
2023-05-10T15:18:27.189Z,100780.81
2023-05-10T15:20:53.637Z,100787.91
2023-05-10T15:23:20.076Z,100790.50
2023-05-10T15:25:46.517Z,100773.06
2023-05-10T15:28:13.017Z,100783.75
2023-05-10T15:30:39.694Z,100783.88
2023-05-10T15:33:06.595Z,100783.19
2023-05-10T15:35:33.325Z,100783.34
2023-05-10T15:37:59.825Z,100785.06
2023-05-10T15:40:26.310Z,100792.41
2023-05-10T15:42:52.742Z,100793.53
2023-05-10T15:45:19.768Z,100791.66
2023-05-10T15:47:46.446Z,100797.88
2023-05-10T15:50:12.975Z,100792.88
2023-05-10T15:52:39.507Z,100797.09
2023-05-10T15:55:12.671Z,100790.56
2023-05-10T15:57:41.408Z,100796.50
2023-05-10T16:00:09.688Z,100799.78
2023-05-10T16:02:37.388Z,100803.22
2023-05-10T16:05:08.501Z,100814.31
2023-05-10T16:07:35.059Z,100804.44
2023-05-10T16:10:04.141Z,100808.84
2023-05-10T16:12:31.469Z,100807.88
2023-05-10T16:14:58.114Z,100811.97
2023-05-10T16:17:24.785Z,100816.16
2023-05-10T16:19:51.382Z,100819.75
2023-05-10T16:22:17.954Z,100817.53
2023-05-10T16:24:44.500Z,100817.66
2023-05-10T16:27:12.508Z,100820.72
2023-05-10T16:29:39.128Z,100823.06
2023-05-10T16:32:05.821Z,100829.94
2023-05-10T16:34:32.343Z,100831.63
2023-05-10T16:36:58.801Z,100828.97
2023-05-10T16:39:25.257Z,100830.94
2023-05-10T16:41:51.708Z,100827.84
2023-05-10T16:44:20.128Z,100835.47
2023-05-10T16:46:47.254Z,100838.38
2023-05-10T16:49:14.018Z,100831.94
2023-05-10T16:51:40.943Z,100837.63
2023-05-10T16:54:07.670Z,100833.50
2023-05-10T16:56:34.130Z,100836.31
2023-05-10T16:59:00.670Z,100845.19
2023-05-10T17:01:27.382Z,100850.75
2023-05-10T17:03:54.222Z,100847.59
2023-05-10T17:06:20.701Z,100862.94
2023-05-10T17:08:47.299Z,100851.75
2023-05-10T17:11:13.782Z,100859.84
2023-05-10T17:13:40.492Z,100857.97
2023-05-10T17:16:08.297Z,100865.03
2023-05-10T17:18:35.006Z,100867.63
2023-05-10T17:21:01.577Z,100864.38
2023-05-10T17:23:28.137Z,100865.63
2023-05-10T17:25:54.626Z,100867.75
2023-05-10T17:28:21.195Z,100882.00
2023-05-10T17:30:48.306Z,100879.53
2023-05-10T17:33:14.744Z,100884.19
2023-05-10T17:35:44.485Z,100892.47
2023-05-10T17:38:11.041Z,100898.69
2023-05-10T17:40:40.786Z,100894.97
2023-05-10T17:43:07.302Z,100898.78
2023-05-10T17:45:33.828Z,100900.78
2023-05-10T17:48:00.487Z,100907.97
2023-05-10T17:50:27.034Z,100914.44
2023-05-10T17:52:53.517Z,100918.38
2023-05-10T17:55:20.115Z,100923.44
2023-05-10T17:57:46.594Z,100921.31
2023-05-10T18:00:13.810Z,100926.59
2023-05-10T18:02:40.337Z,100918.84
2023-05-10T18:05:07.345Z,100933.09
2023-05-10T18:07:34.005Z,100941.09
2023-05-10T18:10:01.126Z,100937.47
2023-05-10T18:12:27.689Z,100935.72
2023-05-10T18:14:54.211Z,100940.25
2023-05-10T18:17:20.971Z,100943.72
2023-05-10T18:19:47.495Z,100940.06
2023-05-10T18:22:14.006Z,100941.53
2023-05-10T18:24:40.537Z,100940.84
2023-05-10T18:27:08.799Z,100941.13
2023-05-10T18:29:36.308Z,100943.56
2023-05-10T18:32:02.994Z,100948.19
2023-05-10T18:34:29.471Z,100948.63
2023-05-10T18:36:56.349Z,100944.06
2023-05-10T18:39:23.053Z,100950.25
2023-05-10T18:41:50.185Z,100953.84
2023-05-10T18:44:16.737Z,100958.38
2023-05-10T18:46:43.361Z,100956.44
2023-05-10T18:49:10.010Z,100965.19
2023-05-10T18:51:36.508Z,100969.38
2023-05-10T18:54:03.509Z,100970.22
2023-05-10T18:56:29.974Z,100968.78
2023-05-10T18:58:56.553Z,100977.53
2023-05-10T19:01:23.086Z,100970.88
2023-05-10T19:03:49.555Z,100973.25
2023-05-10T19:06:16.106Z,100978.78
2023-05-10T19:08:42.609Z,100986.16
2023-05-10T19:11:09.190Z,100987.75
2023-05-10T19:13:35.859Z,100986.66
2023-05-10T19:16:02.473Z,100994.66
2023-05-10T19:18:29.021Z,100992.31
2023-05-10T19:20:56.452Z,100982.63
2023-05-10T19:23:24.318Z,100999.59
2023-05-10T19:25:51.993Z,100991.00
2023-05-10T19:28:18.871Z,100997.38
2023-05-10T19:30:48.720Z,100999.25
2023-05-10T19:33:15.398Z,101000.81
2023-05-10T19:35:42.877Z,101002.16
2023-05-10T19:38:09.324Z,101006.25
2023-05-10T19:40:36.304Z,101008.38
2023-05-10T19:43:03.751Z,101012.41
2023-05-10T19:45:30.255Z,101010.31
2023-05-10T19:47:56.773Z,101006.81
2023-05-10T19:50:23.346Z,101006.94
2023-05-10T19:52:50.613Z,101009.03
2023-05-10T19:55:29.599Z,101013.53
2023-05-10T19:57:56.213Z,101007.03
2023-05-10T20:00:22.969Z,101015.75
2023-05-10T20:02:49.944Z,101012.19
2023-05-10T20:05:16.665Z,101014.28
2023-05-10T20:07:43.353Z,101015.75
2023-05-10T20:10:10.686Z,101019.88
2023-05-10T20:12:37.443Z,101015.13
2023-05-10T20:15:06.376Z,101014.28
2023-05-10T20:17:33.070Z,100999.94
2023-05-10T20:19:59.688Z,101007.94
2023-05-10T20:22:26.181Z,101004.72
2023-05-10T20:24:54.371Z,101000.00
2023-05-10T20:27:22.470Z,101004.88
2023-05-10T20:29:48.956Z,101006.56
2023-05-10T20:32:15.581Z,101005.94
2023-05-10T20:34:42.034Z,101007.47
2023-05-10T20:37:08.567Z,101004.34
2023-05-10T20:39:35.034Z,101011.59
2023-05-10T20:42:01.508Z,101022.03
2023-05-10T20:44:28.645Z,101016.06
2023-05-10T20:46:55.315Z,101026.09
2023-05-10T20:49:21.858Z,101013.72
2023-05-10T20:51:48.341Z,101014.44
2023-05-10T20:54:14.841Z,101019.19
2023-05-10T20:56:41.292Z,101016.31
2023-05-10T20:59:07.767Z,101015.72
2023-05-10T21:01:34.282Z,101017.06
2023-05-10T21:04:00.813Z,101020.22
2023-05-10T21:06:27.322Z,101014.72
2023-05-10T21:08:53.804Z,101019.00
2023-05-10T21:11:20.770Z,101013.41
2023-05-10T21:13:47.220Z,101011.84
2023-05-10T21:16:13.796Z,101017.97
2023-05-10T21:18:40.344Z,101023.56
2023-05-10T21:21:06.860Z,101028.03
2023-05-10T21:23:34.699Z,101024.94
2023-05-10T21:26:03.373Z,101020.16
2023-05-10T21:28:29.857Z,101022.16
2023-05-10T21:30:56.771Z,101022.56
2023-05-10T21:33:23.801Z,101024.59
2023-05-10T21:35:50.574Z,101029.88
2023-05-10T21:38:17.154Z,101029.88
2023-05-10T21:40:43.677Z,101024.22
2023-05-10T21:43:11.219Z,101023.41
2023-05-10T21:45:38.030Z,101025.03
2023-05-10T21:48:04.693Z,101023.41
2023-05-10T21:50:31.240Z,101030.19
2023-05-10T21:52:58.012Z,101029.06
2023-05-10T21:55:24.600Z,101030.34
2023-05-10T21:57:51.192Z,101033.09
2023-05-10T22:00:19.278Z,101026.59
2023-05-10T22:02:46.641Z,101031.31
2023-05-10T22:05:13.485Z,101034.38
2023-05-10T22:07:40.264Z,101037.06
2023-05-10T22:10:08.936Z,101037.56
2023-05-10T22:12:35.781Z,101040.72
2023-05-10T22:17:31.725Z,101031.75
2023-05-10T22:19:58.236Z,101035.69
2023-05-10T22:22:24.729Z,101037.91
2023-05-10T22:24:51.193Z,101034.78
2023-05-10T22:27:17.957Z,101034.03
2023-05-10T22:29:46.352Z,101033.66
2023-05-10T22:32:12.813Z,101043.31
2023-05-10T22:34:39.326Z,101039.84
2023-05-10T22:37:05.916Z,101045.31
2023-05-10T22:39:33.139Z,101047.28
2023-05-10T22:41:59.812Z,101052.53
2023-05-10T22:44:26.348Z,101039.78
2023-05-10T22:46:52.914Z,101039.06
2023-05-10T22:49:19.498Z,101044.91
2023-05-10T22:51:46.578Z,101049.66
2023-05-10T22:54:13.039Z,101052.44
2023-05-10T22:56:39.555Z,101041.31
2023-05-10T22:59:06.080Z,101048.50
2023-05-10T23:01:32.629Z,101052.44
2023-05-10T23:03:59.269Z,101059.59
2023-05-10T23:06:27.332Z,101054.03
2023-05-10T23:08:54.661Z,101050.88
2023-05-10T23:11:22.028Z,101055.25
2023-05-10T23:13:48.609Z,101047.69
2023-05-10T23:16:15.121Z,101061.25
2023-05-10T23:18:41.785Z,101060.03
2023-05-10T23:21:08.283Z,101057.28
2023-05-10T23:23:34.875Z,101054.88
2023-05-10T23:26:02.166Z,101054.81
2023-05-10T23:28:28.585Z,101050.09
2023-05-10T23:30:56.339Z,101055.66
2023-05-10T23:33:23.656Z,101053.25
2023-05-10T23:35:50.422Z,101047.69
2023-05-10T23:38:17.178Z,101045.75
2023-05-10T23:40:43.627Z,101051.31
2023-05-10T23:43:10.149Z,101043.03
2023-05-10T23:45:36.613Z,101052.13
2023-05-10T23:48:03.195Z,101038.22
2023-05-10T23:50:29.693Z,101050.59
2023-05-10T23:52:56.150Z,101044.53
2023-05-10T23:55:22.620Z,101046.56
2023-05-10T23:57:49.082Z,101047.28
